Pagrindinis puslapis
METAR-TAF:

METAR-TAF

Oro uostai :

Kramfors, Švedija

platuma: 63-03N, ilguma: 017-46E, Aukštis: 10 m

Dabartinis oras

Ataskaita buvo paskelbta 26 minutes, ne 05:50 UTC
Ramus vėjas
Temperatūra 14°C
Drėgmė 67%
Slėgis 1021 hPa
Matomumas 10 km arba daugiau
nėra debesų žemiau 1500 m ir nėra kamuolinių lietaus debesų

METAR: ESNK 240550Z 00000KT CAVOK 14/08 Q1021

Laikas: 08:16 (06:16 UTC)

Prognozė

Ataskaita buvo paskelbta 46 minutes, ne 05:30 UTC
Prognozė galioja nuo 24 metu 06 UTC su 24 metu 15 UTC
Vėjas 4 kt iš Pietų
Matomumas 10 km arba daugiau
nėra debesų žemiau 1500 m ir nėra kamuolinių lietaus debesų
Tikimybė 40%
nuo 24 metu 10 UTC su 24 metu 12 UTC
Išsisklaidę debesys ne aukštis 5000 ft, aukštai iškilę kamuoliniai debesys.

TAF: ESNK 240530Z 2406/2415 19004KT CAVOK PROB40 2410/2412 SCT050TCU

Orai ataskaitas ir orų prognozės (METAR, TAF).

turimą stotys yra geltonos ir raudonos taškus žemėlapyje.

Perkelti pele per norėdami pamatyti stoties vardą.

Tada spustelėkite, norėdami matyti oro stebėjimo ir prognozės.

Norėdami pakeisti žemėlapį: spustelėkite ant žalios mygtukų su juodo kryžiaus žemyn,; žalią mygtuką su brūkšneliu, jei norite nutolinti; arba žalių rodyklių gretimoms žemėlapius.


METAR-TAF: